createdAt,value
2019-05-12T00:01:28.588Z,5.80
2019-05-12T00:03:58.087Z,5.20
2019-05-12T00:06:28.440Z,5.37
2019-05-12T00:08:57.994Z,5.37
2019-05-12T00:11:28.778Z,5.58
2019-05-12T00:13:58.567Z,5.90
2019-05-12T00:16:28.317Z,5.40
2019-05-12T00:18:58.578Z,5.65
2019-05-12T00:21:28.319Z,5.30
2019-05-12T00:24:12.166Z,5.10
2019-05-12T00:26:42.476Z,5.40
2019-05-12T00:29:11.067Z,5.30
2019-05-12T00:31:39.757Z,6.85
2019-05-12T00:34:08.381Z,5.33
2019-05-12T00:36:37.987Z,5.37
2019-05-12T00:39:08.586Z,5.40
2019-05-12T00:41:38.905Z,5.17
2019-05-12T00:44:08.786Z,5.60
2019-05-12T00:46:38.540Z,5.40
2019-05-12T00:49:08.068Z,6.33
2019-05-12T00:51:38.341Z,5.33
2019-05-12T00:54:09.135Z,5.83
2019-05-12T00:56:39.189Z,5.87
2019-05-12T00:59:08.431Z,5.28
2019-05-12T01:01:38.099Z,6.05
2019-05-12T01:04:08.862Z,5.65
2019-05-12T01:06:38.656Z,7.25
2019-05-12T01:09:08.727Z,5.60
2019-05-12T01:11:37.949Z,5.47
2019-05-12T01:14:08.511Z,5.80
2019-05-12T01:16:38.532Z,6.15
2019-05-12T01:19:08.087Z,5.80
2019-05-12T01:21:37.649Z,5.58
2019-05-12T01:24:08.857Z,6.72
2019-05-12T01:26:38.792Z,5.62
2019-05-12T01:29:08.420Z,5.67
2019-05-12T01:31:38.915Z,5.55
2019-05-12T01:34:08.092Z,5.78
2019-05-12T01:36:38.091Z,6.17
2019-05-12T01:39:08.511Z,5.55
2019-05-12T01:41:39.027Z,7.10
2019-05-12T01:44:08.874Z,5.55
2019-05-12T01:46:38.303Z,5.85
2019-05-12T01:49:08.327Z,5.80
2019-05-12T01:51:38.443Z,6.05
2019-05-12T01:54:13.923Z,5.58
2019-05-12T01:56:38.274Z,6.30
2019-05-12T01:59:08.125Z,6.80
2019-05-12T02:01:38.904Z,5.80
2019-05-12T02:04:07.757Z,6.60
2019-05-12T02:06:38.672Z,6.05
2019-05-12T02:09:08.461Z,6.53
2019-05-12T02:11:38.002Z,6.20
2019-05-12T02:14:09.028Z,6.87
2019-05-12T02:16:38.647Z,6.47
2019-05-12T02:19:09.094Z,5.85
2019-05-12T02:21:38.264Z,6.33
2019-05-12T02:24:07.765Z,5.75
2019-05-12T02:26:38.280Z,5.40
2019-05-12T02:29:07.917Z,6.10
2019-05-12T02:31:39.816Z,5.62
2019-05-12T02:34:07.101Z,5.72
2019-05-12T02:36:35.667Z,5.60
2019-05-12T02:39:07.108Z,6.37
2019-05-12T02:41:35.679Z,5.37
2019-05-12T02:44:05.240Z,5.53
2019-05-12T02:46:34.999Z,5.42
2019-05-12T02:49:05.020Z,5.87
2019-05-12T02:51:35.598Z,5.65
2019-05-12T02:54:05.716Z,5.50
2019-05-12T02:56:35.770Z,6.55
2019-05-12T02:59:05.561Z,5.75
2019-05-12T03:01:35.886Z,6.40
2019-05-12T03:04:05.940Z,5.65
2019-05-12T03:06:36.473Z,5.62
2019-05-12T03:09:07.559Z,5.60
2019-05-12T03:11:37.571Z,5.70
2019-05-12T03:14:06.203Z,6.10
2019-05-12T03:16:35.322Z,5.47
2019-05-12T03:19:05.098Z,5.83
2019-05-12T03:21:35.158Z,5.53
2019-05-12T03:24:06.314Z,5.83
2019-05-12T03:26:35.409Z,5.60
2019-05-12T03:29:05.623Z,5.83
2019-05-12T03:31:39.650Z,6.80
2019-05-12T03:34:09.724Z,5.70
2019-05-12T03:36:42.125Z,5.83
2019-05-12T03:39:08.565Z,5.72
2019-05-12T03:41:37.125Z,5.20
2019-05-12T03:44:05.721Z,5.35
2019-05-12T03:46:35.271Z,5.72
2019-05-12T03:49:05.233Z,7.10
2019-05-12T03:51:35.126Z,5.62
2019-05-12T03:54:04.998Z,5.60
2019-05-12T03:56:34.673Z,5.55
2019-05-12T03:59:05.056Z,5.67
2019-05-12T04:01:36.363Z,5.97
2019-05-12T04:04:05.239Z,5.65
2019-05-12T04:06:34.724Z,7.30
2019-05-12T04:09:06.115Z,6.50
2019-05-12T04:11:35.810Z,6.20
2019-05-12T04:14:05.681Z,6.03
2019-05-12T04:16:36.425Z,5.95
2019-05-12T04:19:05.524Z,5.90
2019-05-12T04:21:35.344Z,5.92
2019-05-12T04:24:05.456Z,7.30
2019-05-12T04:26:36.501Z,6.40
2019-05-12T04:29:05.321Z,6.03
2019-05-12T04:31:35.329Z,5.80
2019-05-12T04:34:05.144Z,5.53
2019-05-12T04:36:35.554Z,5.53
2019-05-12T04:39:05.924Z,5.95
2019-05-12T04:41:35.363Z,7.47
2019-05-12T04:44:05.808Z,6.33
2019-05-12T04:46:34.911Z,5.40
2019-05-12T04:49:05.330Z,5.90
2019-05-12T04:51:34.976Z,5.47
2019-05-12T04:54:05.768Z,5.97
2019-05-12T04:56:35.866Z,5.67
2019-05-12T04:59:05.151Z,6.37
2019-05-12T05:01:34.823Z,6.10
2019-05-12T05:04:05.360Z,5.87
2019-05-12T05:06:34.444Z,6.08
2019-05-12T05:09:05.135Z,5.70
2019-05-12T05:11:34.504Z,5.95
2019-05-12T05:14:04.249Z,6.50
2019-05-12T05:16:34.582Z,6.95
2019-05-12T05:19:03.890Z,5.83
2019-05-12T05:21:34.462Z,5.70
2019-05-12T05:24:03.824Z,5.87
2019-05-12T05:26:36.636Z,5.78
2019-05-12T05:29:04.313Z,5.85
2019-05-12T05:31:33.820Z,5.80
2019-05-12T05:34:04.823Z,8.53
2019-05-12T05:36:34.545Z,5.83
2019-05-12T05:39:06.051Z,6.00
2019-05-12T05:41:34.715Z,5.30
2019-05-12T05:44:03.333Z,5.53
2019-05-12T05:46:33.664Z,6.10
2019-05-12T05:49:04.193Z,5.22
2019-05-12T05:51:33.437Z,6.00
2019-05-12T05:54:03.979Z,5.62
2019-05-12T05:56:42.436Z,5.53
2019-05-12T05:59:04.582Z,5.10
2019-05-12T06:01:34.765Z,5.42
2019-05-12T06:04:08.334Z,5.70
2019-05-12T06:06:34.295Z,5.70
2019-05-12T06:09:04.572Z,5.55
2019-05-12T06:11:34.548Z,5.50
2019-05-12T06:14:11.403Z,6.20
2019-05-12T06:16:34.165Z,5.90
2019-05-12T06:19:03.473Z,5.15
2019-05-12T06:21:36.332Z,5.37
2019-05-12T06:24:03.488Z,5.47
2019-05-12T06:26:35.412Z,5.70
2019-05-12T06:29:04.510Z,5.30
2019-05-12T06:31:33.596Z,6.33
2019-05-12T06:34:06.421Z,5.95
2019-05-12T06:36:33.936Z,5.60
2019-05-12T06:39:04.469Z,5.78
2019-05-12T06:41:33.633Z,5.60
2019-05-12T06:44:03.692Z,5.28
2019-05-12T06:46:34.295Z,5.58
2019-05-12T06:49:11.215Z,5.87
2019-05-12T06:51:33.980Z,4.80
2019-05-12T06:54:07.255Z,4.22
2019-05-12T06:56:34.197Z,4.50
2019-05-12T06:59:09.919Z,3.62
2019-05-12T07:01:33.579Z,4.15
2019-05-12T07:04:06.460Z,3.67
2019-05-12T07:06:33.949Z,4.33
2019-05-12T07:09:09.545Z,3.80
2019-05-12T07:11:44.248Z,3.80
2019-05-12T07:14:12.816Z,3.70
2019-05-12T07:16:35.223Z,3.70
2019-05-12T07:19:07.686Z,3.83
2019-05-12T07:21:34.026Z,3.58
2019-05-12T07:24:06.726Z,4.35
2019-05-12T07:26:33.916Z,3.50
2019-05-12T07:29:04.470Z,3.17
2019-05-12T07:31:33.711Z,3.33
2019-05-12T07:34:07.121Z,3.02
2019-05-12T07:36:34.447Z,2.83
2019-05-12T07:39:08.400Z,2.70
2019-05-12T07:41:42.476Z,3.58
2019-05-12T07:44:10.074Z,2.50
2019-05-12T07:46:39.538Z,2.80
2019-05-12T07:49:09.032Z,2.33
2019-05-12T07:51:40.532Z,2.30
2019-05-12T07:54:07.863Z,2.60
2019-05-12T07:56:36.387Z,2.45
2019-05-12T07:59:04.959Z,3.40
2019-05-12T08:01:38.141Z,2.70
2019-05-12T08:04:04.523Z,2.92
2019-05-12T08:06:41.457Z,2.72
2019-05-12T08:09:05.728Z,2.92
2019-05-12T08:11:38.676Z,2.70
2019-05-12T08:14:04.624Z,2.65
2019-05-12T08:16:36.780Z,3.67
2019-05-12T08:19:04.111Z,2.95
2019-05-12T08:21:34.757Z,2.75
2019-05-12T08:24:03.764Z,2.92
2019-05-12T08:26:33.450Z,2.95
2019-05-12T08:29:04.213Z,3.00
2019-05-12T08:31:40.087Z,3.20
2019-05-12T08:34:04.265Z,3.72
2019-05-12T08:36:33.474Z,3.02
2019-05-12T08:39:05.945Z,3.05
2019-05-12T08:41:34.147Z,2.70
2019-05-12T08:44:04.580Z,2.60
2019-05-12T08:46:34.399Z,2.58
2019-05-12T08:49:05.428Z,2.70
2019-05-12T08:51:34.014Z,3.45
2019-05-12T08:54:07.442Z,3.00
2019-05-12T08:56:33.323Z,3.55
2019-05-12T08:59:04.122Z,3.12
2019-05-12T09:01:34.355Z,3.02
2019-05-12T09:04:06.701Z,2.90
2019-05-12T09:06:34.307Z,3.17
2019-05-12T09:09:04.812Z,3.20
2019-05-12T09:11:33.676Z,2.90
2019-05-12T09:14:05.205Z,3.15
2019-05-12T09:16:33.535Z,2.85
2019-05-12T09:19:04.665Z,2.60
2019-05-12T09:21:36.529Z,2.80
2019-05-12T09:24:04.213Z,2.62
2019-05-12T09:26:34.343Z,2.47
2019-05-12T09:29:03.564Z,2.42
2019-05-12T09:31:33.614Z,2.77
2019-05-12T09:34:05.829Z,2.20
2019-05-12T09:36:33.817Z,2.50
2019-05-12T09:39:03.824Z,2.67
2019-05-12T09:41:41.811Z,2.60
2019-05-12T09:44:04.643Z,2.80
2019-05-12T09:46:37.298Z,2.50
2019-05-12T09:49:04.199Z,3.00
2019-05-12T09:51:41.005Z,2.42
2019-05-12T09:54:05.221Z,2.47
2019-05-12T09:56:34.195Z,2.40
2019-05-12T09:59:17.411Z,2.70
2019-05-12T10:01:37.415Z,2.40
2019-05-12T10:04:03.764Z,2.50
2019-05-12T10:06:33.899Z,2.90
2019-05-12T10:09:08.737Z,2.55
2019-05-12T10:11:34.743Z,2.47
2019-05-12T10:14:06.394Z,2.75
2019-05-12T10:16:33.747Z,2.72
2019-05-12T10:19:04.025Z,2.65
2019-05-12T10:21:32.690Z,2.90
2019-05-12T10:24:02.783Z,3.90
2019-05-12T10:26:31.626Z,2.80
2019-05-12T10:29:14.170Z,2.92
2019-05-12T10:31:35.775Z,2.65
2019-05-12T10:34:19.062Z,2.55
2019-05-12T10:36:49.168Z,3.40
2019-05-12T10:39:18.011Z,2.55
2019-05-12T10:41:47.651Z,2.90
2019-05-12T10:44:16.475Z,2.60
2019-05-12T10:46:46.692Z,5.17
2019-05-12T10:49:15.262Z,2.67
2019-05-12T10:51:47.425Z,2.65
2019-05-12T10:54:15.750Z,2.90
2019-05-12T10:56:44.512Z,2.70
2019-05-12T10:59:13.387Z,3.45
2019-05-12T11:01:47.240Z,2.70
2019-05-12T11:04:14.262Z,2.90
2019-05-12T11:06:44.683Z,2.90
2019-05-12T11:09:13.935Z,2.70
2019-05-12T11:11:46.783Z,2.95
2019-05-12T11:14:14.245Z,2.75
2019-05-12T11:16:44.612Z,3.33
2019-05-12T11:19:13.808Z,2.55
2019-05-12T11:21:44.340Z,2.50
2019-05-12T11:24:13.822Z,2.52
2019-05-12T11:26:43.297Z,2.58
2019-05-12T11:29:14.028Z,2.60
2019-05-12T11:31:44.094Z,2.45
2019-05-12T11:34:12.528Z,3.10
2019-05-12T11:36:43.660Z,2.77
2019-05-12T11:39:11.566Z,2.55
2019-05-12T11:41:40.321Z,2.40
2019-05-12T11:44:09.156Z,2.45
2019-05-12T11:46:37.733Z,2.30
2019-05-12T11:49:09.446Z,2.10
2019-05-12T11:51:36.731Z,3.20
2019-05-12T11:54:08.929Z,2.72
2019-05-12T11:56:40.430Z,2.52
2019-05-12T11:59:06.152Z,2.47
2019-05-12T12:01:39.673Z,2.50
2019-05-12T12:04:05.031Z,2.62
2019-05-12T12:06:33.667Z,2.67
2019-05-12T12:09:03.949Z,3.45
2019-05-12T12:11:34.228Z,2.50
2019-05-12T12:14:06.375Z,2.55
2019-05-12T12:16:34.088Z,2.60
2019-05-12T12:19:05.679Z,2.45
2019-05-12T12:21:35.087Z,2.50
2019-05-12T12:24:03.939Z,2.50
2019-05-12T12:26:34.978Z,2.90
2019-05-12T12:29:03.432Z,2.25
2019-05-12T12:31:37.330Z,2.40
2019-05-12T12:34:04.011Z,2.20
2019-05-12T12:36:34.213Z,2.08
2019-05-12T12:39:04.168Z,2.27
2019-05-12T12:41:34.170Z,2.10
2019-05-12T12:44:04.572Z,2.60
2019-05-12T12:46:33.794Z,2.40
2019-05-12T12:49:06.504Z,2.45
2019-05-12T12:51:34.252Z,2.40
2019-05-12T12:54:03.364Z,2.20
2019-05-12T12:56:33.982Z,2.20
2019-05-12T12:59:10.171Z,2.08
2019-05-12T13:01:35.605Z,2.20
2019-05-12T13:04:05.169Z,2.30
2019-05-12T13:06:34.594Z,2.35
2019-05-12T13:09:09.844Z,2.20
2019-05-12T13:11:35.673Z,2.10
2019-05-12T13:14:04.753Z,2.20
2019-05-12T13:16:34.353Z,2.00
2019-05-12T13:19:11.701Z,2.25
2019-05-12T13:21:33.675Z,2.12
2019-05-12T13:24:03.610Z,2.85
2019-05-12T13:26:32.315Z,2.30
2019-05-12T13:29:01.069Z,2.47
2019-05-12T13:31:29.640Z,2.52
2019-05-12T13:33:58.314Z,2.65
2019-05-12T13:36:29.496Z,2.52
2019-05-12T13:38:57.118Z,2.50
2019-05-12T13:41:25.821Z,3.30
2019-05-12T13:43:59.096Z,2.60
2019-05-12T13:46:24.826Z,2.45
2019-05-12T13:48:57.632Z,2.47
2019-05-12T13:51:24.237Z,2.50
2019-05-12T13:53:52.865Z,2.70
2019-05-12T13:56:25.769Z,2.87
2019-05-12T13:58:54.060Z,3.40
2019-05-12T14:01:24.707Z,2.40
2019-05-12T14:03:53.602Z,2.50
2019-05-12T14:06:31.527Z,2.55
2019-05-12T14:08:53.824Z,2.17
2019-05-12T14:11:23.854Z,2.50
2019-05-12T14:13:52.723Z,2.87
2019-05-12T14:16:23.668Z,3.20
2019-05-12T14:18:56.997Z,2.30
2019-05-12T14:21:24.321Z,2.60
2019-05-12T14:23:52.656Z,2.60
2019-05-12T14:26:21.283Z,2.60
2019-05-12T14:28:49.875Z,2.80
2019-05-12T14:31:29.445Z,2.85
2019-05-12T14:33:48.798Z,3.72
2019-05-12T14:36:22.012Z,3.05
2019-05-12T14:38:47.610Z,2.83
2019-05-12T14:41:16.184Z,3.00
2019-05-12T14:43:47.674Z,2.87
2019-05-12T14:46:15.269Z,2.95
2019-05-12T14:48:46.365Z,3.02
2019-05-12T14:51:14.255Z,3.40
2019-05-12T14:53:46.077Z,3.30
2019-05-12T14:56:14.065Z,3.37
2019-05-12T14:58:44.264Z,3.30
2019-05-12T15:01:14.276Z,3.47
2019-05-12T15:03:47.763Z,2.98
2019-05-12T15:06:14.167Z,3.20
2019-05-12T15:08:43.629Z,3.35
2019-05-12T15:11:13.252Z,3.08
2019-05-12T15:13:43.629Z,3.22
2019-05-12T15:16:12.213Z,3.20
2019-05-12T15:18:48.304Z,3.10
2019-05-12T15:21:11.194Z,3.30
2019-05-12T15:23:39.799Z,3.40
2019-05-12T15:26:09.660Z,3.20
2019-05-12T15:28:38.967Z,3.08
2019-05-12T15:31:07.803Z,3.37
2019-05-12T15:33:36.488Z,3.00
2019-05-12T15:36:05.055Z,3.00
2019-05-12T15:38:34.172Z,3.17
2019-05-12T15:41:04.211Z,2.85
2019-05-12T15:43:35.842Z,2.95
2019-05-12T15:46:04.258Z,2.90
2019-05-12T15:48:34.255Z,3.80
2019-05-12T15:51:06.938Z,3.15
2019-05-12T15:53:35.840Z,2.87
2019-05-12T15:56:05.892Z,3.02
2019-05-12T15:58:34.466Z,3.00
2019-05-12T16:01:04.501Z,3.10
2019-05-12T16:03:34.318Z,3.30
2019-05-12T16:06:10.016Z,3.60
2019-05-12T16:08:33.787Z,3.00
2019-05-12T16:11:05.044Z,2.98
2019-05-12T16:13:33.776Z,3.08
2019-05-12T16:16:05.848Z,3.10
2019-05-12T16:18:34.477Z,3.22
2019-05-12T16:21:05.168Z,3.00
2019-05-12T16:23:34.132Z,3.35
2019-05-12T16:26:10.320Z,2.90
2019-05-12T16:28:33.703Z,2.90
2019-05-12T16:31:05.186Z,2.70
2019-05-12T16:33:33.406Z,2.80
2019-05-12T16:36:06.642Z,2.90
2019-05-12T16:38:32.372Z,2.90
2019-05-12T16:41:03.553Z,3.62
2019-05-12T16:43:35.145Z,2.87
2019-05-12T16:46:04.233Z,3.00
2019-05-12T16:48:34.837Z,3.08
2019-05-12T16:51:03.367Z,2.80
2019-05-12T16:53:34.069Z,3.02
2019-05-12T16:56:04.190Z,2.90
2019-05-12T16:58:35.496Z,3.62
2019-05-12T17:01:03.931Z,3.22
2019-05-12T17:03:34.144Z,2.75
2019-05-12T17:06:03.650Z,2.80
2019-05-12T17:08:34.352Z,3.00
2019-05-12T17:11:22.985Z,2.80
2019-05-12T17:13:34.148Z,3.10
2019-05-12T17:16:04.260Z,3.25
2019-05-12T17:18:33.931Z,2.80
2019-05-12T17:21:04.199Z,2.90
2019-05-12T17:23:33.146Z,3.10
2019-05-12T17:26:03.821Z,2.80
2019-05-12T17:28:34.348Z,2.80
2019-05-12T17:31:03.810Z,2.92
2019-05-12T17:33:33.939Z,3.10
2019-05-12T17:36:11.456Z,2.80
2019-05-12T17:38:34.562Z,3.20
2019-05-12T17:41:03.886Z,3.17
2019-05-12T17:43:33.901Z,2.98
2019-05-12T17:46:04.477Z,3.00
2019-05-12T17:48:37.310Z,3.10
2019-05-12T17:51:03.740Z,3.30
2019-05-12T17:53:36.189Z,2.85
2019-05-12T17:56:04.791Z,2.98
2019-05-12T17:58:36.632Z,2.80
2019-05-12T18:01:04.027Z,2.80
2019-05-12T18:03:34.246Z,2.70
2019-05-12T18:06:04.062Z,2.90
2019-05-12T18:08:35.861Z,3.12
2019-05-12T18:11:03.879Z,2.80
2019-05-12T18:13:34.462Z,3.47
2019-05-12T18:16:05.994Z,3.10
2019-05-12T18:18:37.935Z,3.00
2019-05-12T18:21:05.930Z,2.92
2019-05-12T18:23:35.093Z,2.70
2019-05-12T18:26:11.588Z,3.02
2019-05-12T18:29:14.515Z,2.83
2019-05-12T18:31:43.650Z,2.90
2019-05-12T18:34:13.978Z,2.80
2019-05-12T18:36:49.141Z,2.72
2019-05-12T18:39:16.568Z,2.90
2019-05-12T18:41:46.485Z,2.67
2019-05-12T18:44:28.996Z,3.33
2019-05-12T18:46:49.122Z,2.90
2019-05-12T18:53:57.752Z,3.55
2019-05-12T18:56:26.649Z,3.00
2019-05-12T18:59:05.145Z,2.80
2019-05-12T19:01:30.678Z,3.90
2019-05-12T19:04:03.786Z,2.80
2019-05-12T19:06:33.949Z,2.90
2019-05-12T19:09:04.521Z,2.90
2019-05-12T19:11:41.558Z,2.90
2019-05-12T19:14:10.378Z,3.08
2019-05-12T19:16:40.282Z,3.40
2019-05-12T19:19:18.308Z,3.90
2019-05-12T19:21:43.824Z,3.37
2019-05-12T19:24:17.508Z,2.95
2019-05-12T19:26:46.623Z,2.90
2019-05-12T19:29:16.080Z,3.10
2019-05-12T19:31:52.581Z,3.17
2019-05-12T19:34:22.592Z,3.35
2019-05-12T19:36:49.601Z,4.00
2019-05-12T19:39:19.551Z,3.65
2019-05-12T19:41:49.777Z,3.42
2019-05-12T19:44:26.375Z,3.40
2019-05-12T19:46:53.914Z,3.10
2019-05-12T19:49:26.132Z,3.52
2019-05-12T19:51:56.919Z,3.27
2019-05-12T19:55:21.185Z,3.83
2019-05-12T19:57:51.406Z,3.50
2019-05-12T20:00:21.472Z,3.33
2019-05-12T20:02:50.351Z,4.00
2019-05-12T20:05:20.817Z,3.30
2019-05-12T20:07:50.537Z,3.45
2019-05-12T20:10:20.884Z,3.30
2019-05-12T20:12:54.891Z,3.35
2019-05-12T20:15:24.409Z,3.65
2019-05-12T20:17:55.333Z,3.40
2019-05-12T20:20:35.807Z,4.67
2019-05-12T20:22:58.327Z,3.70
2019-05-12T20:25:27.904Z,3.33
2019-05-12T20:28:05.793Z,3.30
2019-05-12T20:30:29.494Z,3.40
2019-05-12T20:32:59.314Z,3.58
2019-05-12T20:35:29.811Z,3.40
2019-05-12T20:38:00.005Z,4.00
2019-05-12T20:40:32.102Z,3.30
2019-05-12T20:43:07.703Z,3.45
2019-05-12T20:45:33.115Z,3.40
2019-05-12T20:48:03.897Z,3.60
2019-05-12T20:50:38.147Z,3.37
2019-05-12T20:53:03.888Z,3.80
2019-05-12T20:55:39.451Z,4.45
2019-05-12T20:58:04.443Z,3.60
2019-05-12T21:00:33.736Z,3.80
2019-05-12T21:03:04.407Z,3.60
2019-05-12T21:05:34.298Z,3.67
2019-05-12T21:08:10.984Z,3.60
2019-05-12T21:10:34.070Z,3.65
2019-05-12T21:13:02.877Z,4.12
2019-05-12T21:15:40.725Z,3.30
2019-05-12T21:18:06.844Z,3.42
2019-05-12T21:20:33.715Z,3.70
2019-05-12T21:23:02.373Z,3.62
2019-05-12T21:25:30.885Z,3.65
2019-05-12T21:28:02.598Z,3.60
2019-05-12T21:30:29.930Z,4.25
2019-05-12T21:33:01.265Z,3.70
2019-05-12T21:35:31.781Z,3.65
2019-05-12T21:37:59.379Z,3.52
2019-05-12T21:40:31.932Z,3.80
2019-05-12T21:42:58.307Z,3.47
2019-05-12T21:45:30.837Z,3.80
2019-05-12T21:47:57.131Z,4.80
2019-05-12T21:50:32.409Z,3.85
2019-05-12T21:52:59.305Z,3.72
2019-05-12T21:55:26.793Z,4.15
2019-05-12T21:57:55.443Z,3.72
2019-05-12T22:00:31.439Z,3.87
2019-05-12T22:03:02.659Z,3.70
2019-05-12T22:05:48.170Z,4.53
2019-05-12T22:08:03.178Z,3.80
2019-05-12T22:10:34.470Z,3.90
2019-05-12T22:13:09.037Z,4.28
2019-05-12T22:15:33.796Z,3.75
2019-05-12T22:18:04.649Z,3.90
2019-05-12T22:20:34.525Z,3.80
2019-05-12T22:23:09.558Z,4.90
2019-05-12T22:25:34.493Z,3.90
2019-05-12T22:28:05.402Z,3.70
2019-05-12T22:30:34.969Z,3.85
2019-05-12T22:33:08.289Z,3.67
2019-05-12T22:35:34.290Z,4.00
2019-05-12T22:38:09.163Z,3.77
2019-05-12T22:40:33.242Z,4.75
2019-05-12T22:43:04.488Z,4.00
2019-05-12T22:45:37.768Z,4.10
2019-05-12T22:48:04.146Z,4.12
2019-05-12T22:50:35.203Z,4.15
2019-05-12T22:53:04.479Z,4.17
2019-05-12T22:55:36.037Z,4.00
2019-05-12T22:58:04.061Z,4.90
2019-05-12T23:00:34.162Z,3.87
2019-05-12T23:03:07.218Z,4.28
2019-05-12T23:05:33.571Z,4.00
2019-05-12T23:08:05.967Z,3.90
2019-05-12T23:10:32.428Z,4.10
2019-05-12T23:13:02.026Z,4.42
2019-05-12T23:15:33.404Z,4.92
2019-05-12T23:18:04.052Z,4.37
2019-05-12T23:20:33.405Z,4.60
2019-05-12T23:23:03.873Z,4.17
2019-05-12T23:25:33.627Z,4.17
2019-05-12T23:28:08.517Z,4.20
2019-05-12T23:30:32.685Z,4.20
2019-05-12T23:33:03.545Z,5.00
2019-05-12T23:35:34.904Z,4.10
2019-05-12T23:38:04.183Z,4.62
2019-05-12T23:40:34.247Z,4.72
2019-05-12T23:43:04.056Z,4.17
2019-05-12T23:45:33.881Z,4.05
2019-05-12T23:48:03.733Z,4.35
2019-05-12T23:50:32.790Z,4.95
2019-05-12T23:53:03.473Z,4.50
2019-05-12T23:55:34.686Z,5.22
2019-05-12T23:58:04.321Z,4.28
